createdAt,value
2023-05-08T00:00:17.282Z,7.65
2023-05-08T00:02:44.725Z,10.05
2023-05-08T00:05:12.117Z,8.05
2023-05-08T00:07:39.524Z,8.32
2023-05-08T00:10:07.722Z,7.70
2023-05-08T00:12:35.430Z,7.80
2023-05-08T00:15:03.152Z,9.15
2023-05-08T00:17:30.576Z,8.23
2023-05-08T00:19:57.968Z,8.35
2023-05-08T00:22:25.320Z,7.93
2023-05-08T00:24:52.742Z,8.40
2023-05-08T00:27:20.126Z,7.88
2023-05-08T00:29:49.039Z,7.85
2023-05-08T00:32:16.469Z,7.88
2023-05-08T00:34:43.920Z,9.00
2023-05-08T00:37:11.216Z,8.50
2023-05-08T00:39:38.559Z,7.10
2023-05-08T00:42:05.990Z,8.38
2023-05-08T00:44:33.437Z,7.32
2023-05-08T00:47:00.927Z,7.13
2023-05-08T00:49:28.261Z,8.18
2023-05-08T00:51:56.795Z,9.05
2023-05-08T00:54:24.467Z,8.23
2023-05-08T00:56:53.308Z,10.27
2023-05-08T00:59:21.896Z,8.13
2023-05-08T01:01:49.806Z,9.65
2023-05-08T01:04:18.516Z,8.98
2023-05-08T01:06:45.840Z,11.27
2023-05-08T01:09:13.219Z,9.50
2023-05-08T01:11:55.757Z,11.63
2023-05-08T01:14:30.765Z,9.35
2023-05-08T01:17:11.828Z,10.30
2023-05-08T01:19:39.116Z,8.48
2023-05-08T01:22:06.451Z,9.15
2023-05-08T01:24:39.606Z,9.40
2023-05-08T01:27:09.848Z,9.43
2023-05-08T01:29:37.293Z,9.88
2023-05-08T01:32:10.657Z,10.98
2023-05-08T01:34:41.918Z,9.68
2023-05-08T01:37:12.116Z,10.15
2023-05-08T01:39:54.540Z,10.63
2023-05-08T01:42:40.565Z,12.18
2023-05-08T01:45:28.247Z,9.45
2023-05-08T01:48:06.687Z,10.63
2023-05-08T01:50:36.524Z,10.88
2023-05-08T01:53:10.583Z,10.70
2023-05-08T01:55:38.774Z,10.00
2023-05-08T01:58:08.714Z,10.98
2023-05-08T02:00:36.671Z,9.63
2023-05-08T02:03:06.998Z,12.93
2023-05-08T02:05:36.116Z,11.00
2023-05-08T02:08:04.413Z,12.32
2023-05-08T02:10:32.423Z,11.88
2023-05-08T02:13:00.880Z,12.50
2023-05-08T02:15:28.629Z,11.07
2023-05-08T02:17:56.227Z,12.90
2023-05-08T02:20:23.619Z,12.32
2023-05-08T02:22:51.986Z,10.57
2023-05-08T02:25:20.026Z,11.70
2023-05-08T02:27:48.470Z,11.68
2023-05-08T02:30:17.482Z,13.73
2023-05-08T02:32:45.848Z,12.40
2023-05-08T02:35:17.509Z,13.57
2023-05-08T02:37:46.157Z,12.15
2023-05-08T02:40:15.032Z,11.77
2023-05-08T02:42:42.774Z,14.45
2023-05-08T02:45:12.317Z,11.23
2023-05-08T02:47:53.993Z,11.23
2023-05-08T02:50:30.457Z,14.27
2023-05-08T02:53:04.891Z,13.25
2023-05-08T02:55:45.013Z,16.63
2023-05-08T02:58:15.327Z,15.35
2023-05-08T03:00:46.020Z,15.52
2023-05-08T03:03:16.959Z,14.57
2023-05-08T03:05:48.377Z,14.13
2023-05-08T03:08:17.079Z,15.68
2023-05-08T03:10:45.080Z,15.18
2023-05-08T03:13:13.047Z,17.30
2023-05-08T03:15:46.494Z,14.00
2023-05-08T03:18:15.746Z,16.38
2023-05-08T03:20:45.605Z,14.43
2023-05-08T03:23:14.892Z,14.80
2023-05-08T03:25:42.947Z,15.02
2023-05-08T03:28:11.039Z,15.15
2023-05-08T03:30:39.342Z,16.50
2023-05-08T03:33:07.842Z,15.85
2023-05-08T03:35:38.860Z,14.85
2023-05-08T03:38:06.975Z,14.50
2023-05-08T03:40:44.445Z,16.40
2023-05-08T03:43:12.254Z,14.98
2023-05-08T03:45:40.867Z,15.23
2023-05-08T03:48:09.082Z,14.35
2023-05-08T03:50:37.346Z,15.10
2023-05-08T03:53:05.224Z,13.75
2023-05-08T03:55:32.928Z,14.02
2023-05-08T03:58:09.600Z,16.63
2023-05-08T04:00:48.569Z,16.65
2023-05-08T04:03:38.226Z,14.93
2023-05-08T04:06:14.114Z,14.95
2023-05-08T04:08:55.058Z,14.50
2023-05-08T04:11:27.944Z,16.75
2023-05-08T04:13:58.764Z,16.85
2023-05-08T04:16:28.835Z,14.13
2023-05-08T04:19:02.191Z,14.40
2023-05-08T04:21:31.913Z,16.58
2023-05-08T04:23:59.382Z,16.23
2023-05-08T04:26:26.982Z,15.30
2023-05-08T04:28:54.512Z,15.00
2023-05-08T04:31:21.906Z,13.60
2023-05-08T04:33:49.377Z,16.50
2023-05-08T04:36:16.755Z,15.52
2023-05-08T04:38:44.468Z,14.05
2023-05-08T04:41:11.857Z,14.75
2023-05-08T04:43:39.298Z,12.73
2023-05-08T04:46:07.036Z,13.45
2023-05-08T04:48:34.430Z,15.05
2023-05-08T04:51:01.837Z,15.93
2023-05-08T04:53:29.258Z,15.45
2023-05-08T04:55:57.859Z,15.88
2023-05-08T04:58:25.209Z,14.70
2023-05-08T05:00:52.579Z,12.10
2023-05-08T05:03:19.919Z,15.25
2023-05-08T05:05:47.341Z,15.40
2023-05-08T05:08:14.687Z,13.25
2023-05-08T05:10:42.067Z,13.63
2023-05-08T05:13:09.490Z,13.35
2023-05-08T05:15:36.909Z,15.38
2023-05-08T05:18:04.355Z,14.85
2023-05-08T05:20:31.851Z,13.73
2023-05-08T05:22:59.185Z,12.48
2023-05-08T05:25:26.706Z,13.20
2023-05-08T05:27:54.030Z,13.10
2023-05-08T05:30:21.437Z,14.02
2023-05-08T05:32:49.150Z,11.85
2023-05-08T05:35:16.496Z,12.52
2023-05-08T05:37:43.820Z,11.55
2023-05-08T05:40:13.416Z,13.98
2023-05-08T05:42:40.849Z,11.80
2023-05-08T05:45:08.556Z,11.88
2023-05-08T05:47:35.950Z,12.15
2023-05-08T05:50:03.582Z,11.60
2023-05-08T05:52:30.931Z,13.13
2023-05-08T05:54:58.269Z,13.98
2023-05-08T05:57:25.609Z,12.05
2023-05-08T05:59:54.669Z,11.70
2023-05-08T06:02:22.331Z,14.80
2023-05-08T06:04:50.259Z,12.15
2023-05-08T06:07:17.631Z,10.70
2023-05-08T06:09:45.013Z,10.77
2023-05-08T06:12:12.421Z,11.65
2023-05-08T06:14:39.736Z,13.38
2023-05-08T06:17:07.201Z,11.18
2023-05-08T06:19:34.589Z,12.27
2023-05-08T06:22:01.951Z,9.93
2023-05-08T06:24:29.529Z,10.48
2023-05-08T06:26:56.897Z,11.70
2023-05-08T06:29:24.194Z,11.43
2023-05-08T06:31:51.536Z,10.20
2023-05-08T06:34:18.944Z,10.50
2023-05-08T06:36:46.380Z,10.48
2023-05-08T06:39:13.693Z,8.27
2023-05-08T06:41:41.013Z,12.13
2023-05-08T06:44:08.358Z,12.35
2023-05-08T06:46:35.851Z,11.35
2023-05-08T06:49:03.313Z,10.85
2023-05-08T06:51:31.653Z,12.40
2023-05-08T06:53:59.055Z,11.25
2023-05-08T06:56:26.729Z,11.43
2023-05-08T06:59:05.010Z,13.27
2023-05-08T07:01:35.895Z,11.27
2023-05-08T07:04:03.263Z,10.98
2023-05-08T07:06:34.752Z,12.27
2023-05-08T07:09:02.206Z,9.68
2023-05-08T07:11:29.572Z,11.75
2023-05-08T07:13:56.883Z,12.68
2023-05-08T07:16:24.342Z,9.70
2023-05-08T07:18:51.729Z,10.05
2023-05-08T07:21:20.535Z,9.43
2023-05-08T07:23:49.271Z,10.52
2023-05-08T07:26:16.811Z,10.05
2023-05-08T07:28:44.204Z,11.73
2023-05-08T07:31:11.591Z,10.75
2023-05-08T07:33:39.061Z,10.02
2023-05-08T07:36:06.594Z,11.55
2023-05-08T07:38:34.034Z,12.73
2023-05-08T07:41:02.245Z,10.93
2023-05-08T07:43:29.680Z,11.77
2023-05-08T07:45:57.365Z,11.55
2023-05-08T07:48:24.773Z,11.60
2023-05-08T07:50:52.225Z,9.80
2023-05-08T07:53:19.602Z,13.25
2023-05-08T07:55:46.953Z,10.48
2023-05-08T07:58:14.669Z,10.48
2023-05-08T08:00:41.992Z,9.98
2023-05-08T08:03:09.456Z,11.05
2023-05-08T08:05:36.909Z,10.13
2023-05-08T08:08:04.612Z,10.60
2023-05-08T08:10:32.166Z,8.75
2023-05-08T08:13:01.799Z,10.35
2023-05-08T08:15:29.685Z,8.48
2023-05-08T08:17:57.017Z,9.65
2023-05-08T08:20:24.416Z,9.52
2023-05-08T08:22:51.734Z,9.90
2023-05-08T08:25:19.119Z,9.02
2023-05-08T08:27:46.467Z,9.45
2023-05-08T08:30:17.975Z,9.15
2023-05-08T08:32:46.768Z,9.38
2023-05-08T08:35:14.654Z,8.07
2023-05-08T08:37:42.748Z,10.73
2023-05-08T08:40:10.282Z,9.50
2023-05-08T08:42:37.775Z,9.18
2023-05-08T08:45:05.475Z,10.85
2023-05-08T08:47:41.612Z,9.25
2023-05-08T08:50:11.951Z,7.93
2023-05-08T08:52:42.279Z,9.48
2023-05-08T08:55:13.272Z,10.18
2023-05-08T08:57:44.394Z,10.65
2023-05-08T09:00:12.501Z,9.30
2023-05-08T09:02:39.995Z,11.10
2023-05-08T09:05:07.630Z,10.23
2023-05-08T09:07:35.030Z,8.40
2023-05-08T09:10:02.943Z,9.27
2023-05-08T09:12:30.301Z,8.55
2023-05-08T09:14:57.649Z,9.48
2023-05-08T09:17:25.028Z,8.55
2023-05-08T09:19:52.436Z,8.95
2023-05-08T09:22:20.146Z,9.38
2023-05-08T09:24:57.470Z,7.13
2023-05-08T09:27:28.790Z,9.18
2023-05-08T09:30:04.474Z,8.05
2023-05-08T09:32:32.454Z,9.32
2023-05-08T09:34:59.991Z,9.63
2023-05-08T09:37:28.197Z,12.68
2023-05-08T09:39:55.662Z,9.27
2023-05-08T09:42:25.464Z,8.98
2023-05-08T09:44:55.905Z,9.85
2023-05-08T09:47:24.436Z,9.23
2023-05-08T09:49:57.978Z,8.68
2023-05-08T09:52:25.609Z,9.50
2023-05-08T09:55:06.270Z,9.50
2023-05-08T09:57:34.171Z,9.25
2023-05-08T10:00:13.197Z,9.32
2023-05-08T10:02:42.132Z,10.23
2023-05-08T10:05:30.056Z,9.50
2023-05-08T10:08:17.528Z,8.50
2023-05-08T10:10:45.065Z,9.40
2023-05-08T10:13:12.556Z,8.38
2023-05-08T10:15:42.103Z,6.30
2023-05-08T10:18:10.642Z,7.40
2023-05-08T10:20:41.460Z,7.60
2023-05-08T10:23:11.614Z,7.30
2023-05-08T10:25:47.706Z,8.35
2023-05-08T10:28:15.026Z,6.88
2023-05-08T10:30:44.999Z,9.07
2023-05-08T10:33:13.991Z,8.80
2023-05-08T10:35:41.491Z,7.57
2023-05-08T10:38:10.164Z,6.00
2023-05-08T10:40:38.530Z,7.95
2023-05-08T10:43:07.936Z,7.30
2023-05-08T10:45:35.684Z,7.57
2023-05-08T10:48:03.369Z,5.95
2023-05-08T10:50:49.664Z,6.40
2023-05-08T10:53:19.981Z,4.68
2023-05-08T10:55:48.447Z,5.93
2023-05-08T10:58:24.790Z,5.32
2023-05-08T11:01:01.134Z,5.85
2023-05-08T11:03:32.823Z,5.97
2023-05-08T11:06:01.952Z,4.55
2023-05-08T11:08:29.938Z,6.03
2023-05-08T11:11:00.546Z,5.20
2023-05-08T11:13:34.917Z,4.90
2023-05-08T11:16:02.433Z,4.20
2023-05-08T11:18:41.831Z,5.68
2023-05-08T11:21:22.010Z,8.13
2023-05-08T11:23:57.125Z,8.10
2023-05-08T11:28:54.789Z,4.85
2023-05-08T11:31:22.187Z,7.78
2023-05-08T11:33:49.828Z,8.70
2023-05-08T11:36:19.370Z,9.23
2023-05-08T11:39:05.952Z,9.57
2023-05-08T11:41:33.261Z,10.77
2023-05-08T11:44:04.908Z,8.80
2023-05-08T11:46:35.232Z,8.65
2023-05-08T11:49:02.587Z,7.57
2023-05-08T11:51:33.574Z,7.78
2023-05-08T11:54:01.722Z,8.30
2023-05-08T11:56:29.120Z,7.65
2023-05-08T11:59:03.705Z,7.97
2023-05-08T12:01:32.111Z,7.57
2023-05-08T12:04:07.354Z,6.75
2023-05-08T12:06:35.529Z,6.88
2023-05-08T12:09:05.465Z,7.05
2023-05-08T12:11:32.850Z,7.05
2023-05-08T12:14:00.247Z,6.40
2023-05-08T12:16:27.690Z,6.47
2023-05-08T12:18:57.528Z,4.00
2023-05-08T12:21:24.915Z,5.13
2023-05-08T12:23:52.250Z,8.43
2023-05-08T12:26:19.586Z,6.18
2023-05-08T12:28:47.643Z,4.30
2023-05-08T12:31:15.019Z,6.78
2023-05-08T12:33:43.665Z,4.57
2023-05-08T12:36:11.300Z,5.40
2023-05-08T12:38:38.641Z,5.25
2023-05-08T12:41:08.728Z,5.75
2023-05-08T12:43:36.698Z,4.80
2023-05-08T12:46:04.908Z,6.13
2023-05-08T12:48:32.453Z,4.50
2023-05-08T12:51:04.056Z,4.93
2023-05-08T12:53:33.036Z,7.00
2023-05-08T12:56:04.134Z,8.30
2023-05-08T12:58:32.757Z,7.25
2023-05-08T13:01:07.360Z,8.18
2023-05-08T13:03:34.873Z,8.40
2023-05-08T13:06:03.377Z,7.97
2023-05-08T13:08:34.941Z,7.10
2023-05-08T13:11:02.857Z,8.43
2023-05-08T13:13:34.540Z,7.47
2023-05-08T13:16:05.900Z,8.80
2023-05-08T13:18:33.693Z,7.57
2023-05-08T13:21:02.332Z,8.85
2023-05-08T13:23:29.681Z,7.00
2023-05-08T13:25:57.298Z,8.82
2023-05-08T13:28:24.644Z,9.25
2023-05-08T13:30:52.001Z,9.60
2023-05-08T13:33:19.370Z,9.07
2023-05-08T13:35:46.751Z,8.88
2023-05-08T13:38:14.131Z,8.25
2023-05-08T13:40:41.594Z,9.55
2023-05-08T13:43:08.938Z,12.43
2023-05-08T13:45:36.355Z,9.00
2023-05-08T13:48:03.754Z,8.60
2023-05-08T13:50:31.154Z,9.15
2023-05-08T13:52:58.453Z,10.80
2023-05-08T13:55:25.861Z,8.75
2023-05-08T13:57:53.219Z,8.57
2023-05-08T14:00:20.722Z,6.95
2023-05-08T14:02:50.670Z,7.93
2023-05-08T14:05:19.719Z,9.43
2023-05-08T14:07:47.146Z,7.65
2023-05-08T14:10:17.139Z,8.27
2023-05-08T14:12:44.521Z,8.93
2023-05-08T14:15:12.498Z,7.97
2023-05-08T14:17:40.244Z,8.07
2023-05-08T14:20:08.718Z,8.13
2023-05-08T14:22:36.946Z,7.50
2023-05-08T14:25:04.373Z,7.43
2023-05-08T14:27:31.677Z,8.98
2023-05-08T14:29:59.037Z,8.43
2023-05-08T14:32:26.554Z,8.73
2023-05-08T14:34:53.914Z,8.05
2023-05-08T14:37:21.237Z,7.60
2023-05-08T14:39:48.584Z,7.28
2023-05-08T14:42:22.010Z,7.25
2023-05-08T14:44:50.580Z,7.95
2023-05-08T14:47:18.002Z,8.20
2023-05-08T14:49:45.549Z,7.70
2023-05-08T14:52:12.868Z,7.25
2023-05-08T14:54:40.341Z,9.23
2023-05-08T14:57:07.902Z,8.20
2023-05-08T14:59:35.224Z,7.57
2023-05-08T15:02:02.656Z,6.15
2023-05-08T15:04:30.329Z,6.07
2023-05-08T15:06:57.651Z,7.05
2023-05-08T15:09:25.008Z,5.75
2023-05-08T15:11:52.316Z,6.13
2023-05-08T15:14:19.722Z,7.03
2023-05-08T15:16:47.137Z,6.20
2023-05-08T15:19:14.600Z,6.60
2023-05-08T15:21:41.945Z,5.30
2023-05-08T15:24:09.544Z,5.20
2023-05-08T15:26:37.255Z,5.15
2023-05-08T15:29:04.612Z,5.18
2023-05-08T15:31:31.959Z,4.93
2023-05-08T15:33:59.394Z,6.22
2023-05-08T15:36:28.506Z,5.55
2023-05-08T15:38:55.990Z,7.65
2023-05-08T15:41:23.316Z,13.98
2023-05-08T15:43:50.672Z,7.03
2023-05-08T15:46:18.140Z,6.25
2023-05-08T15:48:45.619Z,5.95
2023-05-08T15:51:13.151Z,5.38
2023-05-08T15:53:40.546Z,6.20
2023-05-08T15:56:07.995Z,5.78
2023-05-08T15:58:36.978Z,10.85
2023-05-08T16:01:05.288Z,7.38
2023-05-08T16:03:33.460Z,5.13
2023-05-08T16:06:00.956Z,4.60
2023-05-08T16:08:29.587Z,4.57
2023-05-08T16:10:56.997Z,6.13
2023-05-08T16:13:24.443Z,6.05
2023-05-08T16:15:51.929Z,6.20
2023-05-08T16:18:19.327Z,5.65
2023-05-08T16:20:47.637Z,12.05
2023-05-08T16:23:15.056Z,3.95
2023-05-08T16:25:42.413Z,3.15
2023-05-08T16:28:09.744Z,5.03
2023-05-08T16:30:37.110Z,4.03
2023-05-08T16:33:04.504Z,5.07
2023-05-08T16:35:33.535Z,3.72
2023-05-08T16:38:00.895Z,3.40
2023-05-08T16:40:28.330Z,4.18
2023-05-08T16:42:56.305Z,4.15
2023-05-08T16:45:23.804Z,5.20
2023-05-08T16:47:51.182Z,3.42
2023-05-08T16:50:18.523Z,3.10
2023-05-08T16:52:45.856Z,4.05
2023-05-08T16:55:13.567Z,9.32
2023-05-08T16:57:41.089Z,4.32
2023-05-08T17:00:08.861Z,5.50
2023-05-08T17:02:36.329Z,6.38
2023-05-08T17:05:04.088Z,4.18
2023-05-08T17:07:31.566Z,4.60
2023-05-08T17:09:59.047Z,3.50
2023-05-08T17:12:26.497Z,4.20
2023-05-08T17:14:53.893Z,4.60
2023-05-08T17:17:21.237Z,3.83
2023-05-08T17:19:48.818Z,3.35
2023-05-08T17:22:16.413Z,4.15
2023-05-08T17:24:43.758Z,3.63
2023-05-08T17:27:11.452Z,4.90
2023-05-08T17:29:38.807Z,3.58
2023-05-08T17:32:06.455Z,3.65
2023-05-08T17:34:33.887Z,3.00
2023-05-08T17:37:01.328Z,3.83
2023-05-08T17:39:28.690Z,3.05
2023-05-08T17:41:56.745Z,3.80
2023-05-08T17:44:24.107Z,2.85
2023-05-08T17:46:51.466Z,3.03
2023-05-08T17:49:19.623Z,4.28
2023-05-08T17:51:47.082Z,3.13
2023-05-08T17:54:14.605Z,4.75
2023-05-08T17:56:41.937Z,4.80
2023-05-08T17:59:09.276Z,8.45
2023-05-08T18:01:36.667Z,3.00
2023-05-08T18:04:04.477Z,5.65
2023-05-08T18:06:31.789Z,3.17
2023-05-08T18:08:59.176Z,2.83
2023-05-08T18:11:27.099Z,3.78
2023-05-08T18:13:55.263Z,2.70
2023-05-08T18:16:23.278Z,2.30
2023-05-08T18:18:50.737Z,3.05
2023-05-08T18:21:18.104Z,2.22
2023-05-08T18:23:45.527Z,3.05
2023-05-08T18:26:16.814Z,2.85
2023-05-08T18:28:44.821Z,6.05
2023-05-08T18:31:13.511Z,2.50
2023-05-08T18:33:40.887Z,2.95
2023-05-08T18:36:08.334Z,3.30
2023-05-08T18:38:36.547Z,3.47
2023-05-08T18:41:05.229Z,3.10
2023-05-08T18:43:32.596Z,2.92
2023-05-08T18:46:00.958Z,2.95
2023-05-08T18:48:29.781Z,3.10
2023-05-08T18:50:59.013Z,2.63
2023-05-08T18:53:26.627Z,2.97
2023-05-08T18:55:53.981Z,5.22
2023-05-08T18:58:21.317Z,4.18
2023-05-08T19:00:48.838Z,3.70
2023-05-08T19:03:16.320Z,3.45
2023-05-08T19:05:44.390Z,3.20
2023-05-08T19:08:13.282Z,2.67
2023-05-08T19:10:41.186Z,3.03
2023-05-08T19:13:08.634Z,4.18
2023-05-08T19:15:36.139Z,2.78
2023-05-08T19:18:03.901Z,2.65
2023-05-08T19:20:31.354Z,2.65
2023-05-08T19:22:58.747Z,4.95
2023-05-08T19:25:26.096Z,6.53
2023-05-08T19:27:53.547Z,3.72
2023-05-08T19:30:20.903Z,3.35
2023-05-08T19:32:48.320Z,4.40
2023-05-08T19:35:15.792Z,2.63
2023-05-08T19:37:43.116Z,2.60
2023-05-08T19:40:10.852Z,3.45
2023-05-08T19:42:38.178Z,4.97
2023-05-08T19:45:05.856Z,2.90
2023-05-08T19:47:33.260Z,7.25
2023-05-08T19:50:00.685Z,7.50
2023-05-08T19:52:27.996Z,5.03
2023-05-08T19:54:55.369Z,6.15
2023-05-08T19:57:22.795Z,3.45
2023-05-08T19:59:50.240Z,2.60
2023-05-08T20:02:17.609Z,2.88
2023-05-08T20:05:04.344Z,3.05
2023-05-08T20:07:32.296Z,2.45
2023-05-08T20:09:59.634Z,2.45
2023-05-08T20:12:26.971Z,2.10
2023-05-08T20:14:54.521Z,2.10
2023-05-08T20:17:22.030Z,3.88
2023-05-08T20:19:49.562Z,2.45
2023-05-08T20:22:16.974Z,2.75
2023-05-08T20:24:44.322Z,4.13
2023-05-08T20:27:11.632Z,3.33
2023-05-08T20:29:39.087Z,3.38
2023-05-08T20:32:08.312Z,3.60
2023-05-08T20:34:36.482Z,3.15
2023-05-08T20:37:03.972Z,1.75
2023-05-08T20:39:31.281Z,1.92
2023-05-08T20:41:58.628Z,2.95
2023-05-08T20:44:25.937Z,3.22
2023-05-08T20:46:53.264Z,2.90
2023-05-08T20:49:20.661Z,2.53
2023-05-08T20:51:48.419Z,2.30
2023-05-08T20:54:15.816Z,2.15
2023-05-08T20:56:43.167Z,2.10
2023-05-08T20:59:10.533Z,4.03
2023-05-08T21:01:37.955Z,4.20
2023-05-08T21:04:05.407Z,2.22
2023-05-08T21:06:32.883Z,2.40
2023-05-08T21:09:00.198Z,2.35
2023-05-08T21:11:27.556Z,2.08
2023-05-08T21:13:54.873Z,2.03
2023-05-08T21:16:24.278Z,2.10
2023-05-08T21:18:52.739Z,2.05
2023-05-08T21:21:20.670Z,3.00
2023-05-08T21:23:48.088Z,5.60
2023-05-08T21:26:15.569Z,2.58
2023-05-08T21:28:42.881Z,3.75
2023-05-08T21:31:10.284Z,3.60
2023-05-08T21:33:37.794Z,3.08
2023-05-08T21:36:05.181Z,2.70
2023-05-08T21:38:32.529Z,2.78
2023-05-08T21:41:06.399Z,2.63
2023-05-08T21:43:33.717Z,4.57
2023-05-08T21:46:01.182Z,2.83
2023-05-08T21:48:28.500Z,4.53
2023-05-08T21:50:55.876Z,3.47
2023-05-08T21:53:23.218Z,4.38
2023-05-08T21:55:50.753Z,3.47
2023-05-08T21:58:18.144Z,4.63
2023-05-08T22:00:45.509Z,4.15
2023-05-08T22:03:12.911Z,4.28
2023-05-08T22:05:40.356Z,3.65
2023-05-08T22:08:07.682Z,5.72
2023-05-08T22:10:35.078Z,2.53
2023-05-08T22:13:02.697Z,2.80
2023-05-08T22:15:31.054Z,3.08
2023-05-08T22:17:59.603Z,3.85
2023-05-08T22:20:27.122Z,5.15
2023-05-08T22:22:54.615Z,4.50
2023-05-08T22:25:22.151Z,2.38
2023-05-08T22:27:49.593Z,3.03
2023-05-08T22:30:17.091Z,2.63
2023-05-08T22:32:44.469Z,2.50
2023-05-08T22:35:11.953Z,2.90
2023-05-08T22:37:39.561Z,2.50
2023-05-08T22:40:07.323Z,2.95
2023-05-08T22:42:34.681Z,2.50
2023-05-08T22:45:02.248Z,2.28
2023-05-08T22:47:31.461Z,3.67
2023-05-08T22:49:59.339Z,3.58
2023-05-08T22:52:26.775Z,3.17
2023-05-08T22:54:54.147Z,2.72
2023-05-08T22:57:21.483Z,2.88
2023-05-08T22:59:48.775Z,2.70
2023-05-08T23:02:16.247Z,4.05
2023-05-08T23:04:43.577Z,2.50
2023-05-08T23:07:10.954Z,3.13
2023-05-08T23:09:38.273Z,5.85
2023-05-08T23:12:05.708Z,3.15
2023-05-08T23:14:33.094Z,3.92
2023-05-08T23:17:00.509Z,3.60
2023-05-08T23:19:27.925Z,5.55
2023-05-08T23:21:55.225Z,8.70
2023-05-08T23:24:22.555Z,3.70
2023-05-08T23:26:49.982Z,2.88
2023-05-08T23:29:17.324Z,3.15
2023-05-08T23:31:44.672Z,2.40
2023-05-08T23:34:12.018Z,4.57
2023-05-08T23:36:39.310Z,2.88
2023-05-08T23:39:07.358Z,3.80
2023-05-08T23:41:34.748Z,4.43
2023-05-08T23:44:02.095Z,3.47
2023-05-08T23:46:29.560Z,2.47
2023-05-08T23:48:57.206Z,2.85
2023-05-08T23:51:24.578Z,2.83
2023-05-08T23:53:51.951Z,5.32
2023-05-08T23:56:19.336Z,3.92
2023-05-08T23:58:46.689Z,3.72
